createdAt,value
2023-02-02T00:13:45.015Z,0
2023-02-02T00:28:41.265Z,0
2023-02-02T00:43:37.506Z,0
2023-02-02T00:58:33.618Z,0
2023-02-02T01:13:29.618Z,0
2023-02-02T01:28:25.526Z,0
2023-02-02T01:43:21.593Z,0
2023-02-02T01:58:18.364Z,0
2023-02-02T02:13:14.356Z,0
2023-02-02T02:28:10.633Z,0
2023-02-02T02:43:06.692Z,0
2023-02-02T02:58:02.901Z,0
2023-02-02T03:12:58.814Z,0
2023-02-02T03:27:54.815Z,0
2023-02-02T03:42:50.897Z,0
2023-02-02T03:57:47.084Z,0
2023-02-02T04:12:43.431Z,0
2023-02-02T04:27:39.460Z,0
2023-02-02T04:42:35.752Z,0
2023-02-02T04:57:32.138Z,0
2023-02-02T05:12:28.589Z,0
2023-02-02T05:27:24.918Z,0
2023-02-02T05:42:20.944Z,0
2023-02-02T05:57:17.193Z,0
2023-02-02T06:12:13.445Z,0
2023-02-02T06:27:09.552Z,0
2023-02-02T06:42:20.234Z,0
2023-02-02T06:57:01.679Z,0
2023-02-02T07:11:59.441Z,0.01
2023-02-02T07:26:54.066Z,0.02
2023-02-02T07:41:50.414Z,0.03
2023-02-02T07:56:46.445Z,0.03
2023-02-02T08:11:42.827Z,0.03
2023-02-02T08:26:38.705Z,0.02
2023-02-02T08:41:35.179Z,0.05
2023-02-02T08:56:31.229Z,0.1
2023-02-02T09:11:27.688Z,0.07
2023-02-02T09:26:23.744Z,0.06
2023-02-02T09:41:19.881Z,0.03
2023-02-02T09:56:15.989Z,0.02
2023-02-02T10:11:12.372Z,0.13
2023-02-02T10:26:08.983Z,0.18
2023-02-02T10:41:05.577Z,0.26
2023-02-02T10:56:01.653Z,0.1
2023-02-02T11:10:57.470Z,0.17
2023-02-02T11:25:53.937Z,0.28
2023-02-02T11:40:49.991Z,0.16
2023-02-02T11:55:46.179Z,0.1
2023-02-02T12:10:42.140Z,0.1
2023-02-02T12:25:38.700Z,0.11
2023-02-02T12:40:34.937Z,0.15
2023-02-02T12:55:31.104Z,0.22
2023-02-02T13:10:27.745Z,0.15
2023-02-02T13:25:23.952Z,0.16
2023-02-02T13:40:19.726Z,0.15
2023-02-02T13:55:15.902Z,0.1
2023-02-02T14:10:12.252Z,0.13
2023-02-02T14:25:08.188Z,0.1
2023-02-02T14:40:03.764Z,0.15
2023-02-02T14:55:00.003Z,0.11
2023-02-02T15:09:56.120Z,0.05
2023-02-02T15:24:52.239Z,0.07
2023-02-02T15:39:48.832Z,0.02
2023-02-02T15:54:45.222Z,0.02
2023-02-02T16:09:41.397Z,0
2023-02-02T16:24:36.981Z,0
2023-02-02T16:39:33.303Z,0.01
2023-02-02T16:54:29.576Z,0
2023-02-02T17:09:25.078Z,0
2023-02-02T17:24:21.421Z,0
2023-02-02T17:39:17.442Z,0
2023-02-02T17:54:13.448Z,0
2023-02-02T18:09:09.589Z,0
2023-02-02T18:24:05.912Z,0
2023-02-02T18:39:01.724Z,0
2023-02-02T18:53:58.088Z,0
2023-02-02T19:08:53.895Z,0
2023-02-02T19:23:49.890Z,0
2023-02-02T19:38:45.618Z,0
2023-02-02T20:08:37.896Z,0
2023-02-02T20:23:33.960Z,0
2023-02-02T20:38:30.181Z,0
2023-02-02T20:53:27.215Z,0.01
2023-02-02T21:08:23.291Z,0
2023-02-02T21:23:19.477Z,0
2023-02-02T21:38:16.149Z,0
2023-02-02T21:53:11.818Z,0
2023-02-02T22:08:08.112Z,0
2023-02-02T22:38:00.977Z,0
2023-02-02T22:52:56.865Z,0
2023-02-02T23:07:53.266Z,0
2023-02-02T23:22:49.008Z,0
2023-02-02T23:37:45.539Z,0
2023-02-02T23:52:41.768Z,0
